createdAt,value
2024-04-18T00:01:00.249Z,84.60
2024-04-18T00:03:27.087Z,84.56
2024-04-18T00:05:53.722Z,84.79
2024-04-18T00:08:20.290Z,84.92
2024-04-18T00:10:47.046Z,84.72
2024-04-18T00:13:14.086Z,84.77
2024-04-18T00:15:40.656Z,85.07
2024-04-18T00:18:07.270Z,84.56
2024-04-18T00:20:33.843Z,84.84
2024-04-18T00:23:00.395Z,84.82
2024-04-18T00:25:26.911Z,84.72
2024-04-18T00:27:54.305Z,84.88
2024-04-18T00:30:20.848Z,84.95
2024-04-18T00:32:47.490Z,84.97
2024-04-18T00:35:14.278Z,85.02
2024-04-18T00:37:40.821Z,84.98
2024-04-18T00:40:07.864Z,84.66
2024-04-18T00:42:34.365Z,85.07
2024-04-18T00:45:00.988Z,84.95
2024-04-18T00:47:27.725Z,85.05
2024-04-18T00:49:54.324Z,85.14
2024-04-18T00:52:21.526Z,85.09
2024-04-18T00:54:49.684Z,85.15
2024-04-18T00:57:18.109Z,85.09
2024-04-18T00:59:47.760Z,85.28
2024-04-18T01:02:14.607Z,85.18
2024-04-18T01:04:41.278Z,84.83
2024-04-18T01:07:07.886Z,84.99
2024-04-18T01:09:34.576Z,85.16
2024-04-18T01:12:01.194Z,85.19
2024-04-18T01:14:27.855Z,85.32
2024-04-18T01:16:54.380Z,85.09
2024-04-18T01:19:20.958Z,85.31
2024-04-18T01:21:48.260Z,85.23
2024-04-18T01:24:15.790Z,85.47
2024-04-18T01:26:42.625Z,85.31
2024-04-18T01:29:09.165Z,85.39
2024-04-18T01:31:35.711Z,85.25
2024-04-18T01:34:02.485Z,85.23
2024-04-18T01:36:29.189Z,85.58
2024-04-18T01:38:56.108Z,85.21
2024-04-18T01:41:22.665Z,85.29
2024-04-18T01:43:49.227Z,85.16
2024-04-18T01:46:15.748Z,85.03
2024-04-18T01:48:42.835Z,85.58
2024-04-18T01:51:09.455Z,85.31
2024-04-18T01:53:37.644Z,85.20
2024-04-18T01:56:04.562Z,85.31
2024-04-18T01:58:31.071Z,85.29
2024-04-18T02:00:57.854Z,85.28
2024-04-18T02:03:24.478Z,85.69
2024-04-18T02:05:51.251Z,85.41
2024-04-18T02:08:17.844Z,85.19
2024-04-18T02:10:44.550Z,84.82
2024-04-18T02:13:11.100Z,85.41
2024-04-18T02:15:37.624Z,85.25
2024-04-18T02:18:04.477Z,84.74
2024-04-18T02:20:31.007Z,85.10
2024-04-18T02:22:57.541Z,85.42
2024-04-18T02:25:24.094Z,85.08
2024-04-18T02:27:50.704Z,84.97
2024-04-18T02:30:17.389Z,84.92
2024-04-18T02:32:43.991Z,85.49
2024-04-18T02:35:10.602Z,85.13
2024-04-18T02:37:37.176Z,85.07
2024-04-18T02:40:03.969Z,84.81
2024-04-18T02:42:32.073Z,84.91
2024-04-18T02:45:00.976Z,85.04
2024-04-18T02:47:28.061Z,85.27
2024-04-18T02:49:54.691Z,85.32
2024-04-18T02:52:21.189Z,85.01
2024-04-18T02:54:47.792Z,84.92
2024-04-18T02:57:14.474Z,85.03
2024-04-18T02:59:41.160Z,85.53
2024-04-18T03:02:07.880Z,85.22
2024-04-18T03:04:34.510Z,85.10
2024-04-18T03:07:01.047Z,85.06
2024-04-18T03:09:27.608Z,84.70
2024-04-18T03:11:54.812Z,84.78
2024-04-18T03:14:21.360Z,85.42
2024-04-18T03:16:50.112Z,85.28
2024-04-18T03:19:16.853Z,84.95
2024-04-18T03:21:46.768Z,85.83
2024-04-18T03:24:22.193Z,85.28
2024-04-18T03:26:50.198Z,85.41
2024-04-18T03:29:16.754Z,85.78
2024-04-18T03:31:44.548Z,85.63
2024-04-18T03:34:11.242Z,85.30
2024-04-18T03:36:42.974Z,85.85
2024-04-18T03:39:12.768Z,85.89
2024-04-18T03:41:42.413Z,85.42
2024-04-18T03:44:09.308Z,85.73
2024-04-18T03:46:37.640Z,85.48
2024-04-18T03:49:04.528Z,85.09
2024-04-18T03:51:31.800Z,84.96
2024-04-18T03:53:58.427Z,85.38
2024-04-18T03:56:25.039Z,85.27
2024-04-18T03:58:51.591Z,85.63
2024-04-18T04:01:18.195Z,85.38
2024-04-18T04:03:45.011Z,85.81
2024-04-18T04:06:11.773Z,85.37
2024-04-18T04:08:38.592Z,85.48
2024-04-18T04:11:05.202Z,85.36
2024-04-18T04:13:31.783Z,85.53
2024-04-18T04:15:58.327Z,85.44
2024-04-18T04:18:27.499Z,85.63
2024-04-18T04:20:54.163Z,85.65
2024-04-18T04:23:21.200Z,85.88
2024-04-18T04:25:47.739Z,85.78
2024-04-18T04:28:14.319Z,85.89
2024-04-18T04:30:40.855Z,85.53
2024-04-18T04:33:07.439Z,85.37
2024-04-18T04:35:33.998Z,85.61
2024-04-18T04:38:00.499Z,85.66
2024-04-18T04:40:27.011Z,85.62
2024-04-18T04:42:54.545Z,85.70
2024-04-18T04:45:21.865Z,85.32
2024-04-18T04:47:50.898Z,85.47
2024-04-18T04:50:17.533Z,85.51
2024-04-18T04:52:44.161Z,85.40
2024-04-18T04:55:10.793Z,85.43
2024-04-18T04:57:37.332Z,85.28
2024-04-18T05:00:04.205Z,85.24
2024-04-18T05:02:30.821Z,85.34
2024-04-18T05:04:57.394Z,85.16
2024-04-18T05:07:23.929Z,84.58
2024-04-18T05:09:51.411Z,85.13
2024-04-18T05:12:18.075Z,85.06
2024-04-18T05:14:44.876Z,85.01
2024-04-18T05:17:11.439Z,84.69
2024-04-18T05:19:37.972Z,85.06
2024-04-18T05:22:04.708Z,85.28
2024-04-18T05:24:31.286Z,85.22
2024-04-18T05:26:57.968Z,84.93
2024-04-18T05:29:43.106Z,85.72
2024-04-18T05:32:09.651Z,85.58
2024-04-18T05:34:36.237Z,85.64
2024-04-18T05:37:03.164Z,85.42
2024-04-18T05:39:29.830Z,85.46
2024-04-18T05:41:56.506Z,85.76
2024-04-18T05:44:25.451Z,85.38
2024-04-18T05:46:51.967Z,85.97
2024-04-18T05:49:22.287Z,85.97
2024-04-18T05:51:49.072Z,86.04
2024-04-18T05:54:15.768Z,86.17
2024-04-18T05:56:42.387Z,86.28
2024-04-18T05:59:08.995Z,86.83
2024-04-18T06:01:35.569Z,86.84
2024-04-18T06:04:02.214Z,87.10
2024-04-18T06:06:28.865Z,87.50
2024-04-18T06:08:55.724Z,87.44
2024-04-18T06:11:39.978Z,87.28
2024-04-18T06:14:06.545Z,87.56
2024-04-18T06:16:34.545Z,87.86
2024-04-18T06:19:01.584Z,87.51
2024-04-18T06:21:28.187Z,87.67
2024-04-18T06:23:54.767Z,87.82
2024-04-18T06:26:22.428Z,87.78
2024-04-18T06:28:49.161Z,87.51
2024-04-18T06:31:17.952Z,87.76
2024-04-18T06:33:45.122Z,87.85
2024-04-18T06:36:12.072Z,87.42
2024-04-18T06:38:39.511Z,87.84
2024-04-18T06:41:06.140Z,87.64
2024-04-18T06:43:32.665Z,88.00
2024-04-18T06:45:59.221Z,87.48
2024-04-18T06:48:27.097Z,87.96
2024-04-18T06:50:53.666Z,87.72
2024-04-18T06:53:20.247Z,87.74
2024-04-18T06:55:46.792Z,87.81
2024-04-18T06:58:13.352Z,87.75
2024-04-18T07:00:40.127Z,87.79
2024-04-18T07:03:12.984Z,87.61
2024-04-18T07:05:40.219Z,87.98
2024-04-18T07:08:07.156Z,87.60
2024-04-18T07:10:35.011Z,87.52
2024-04-18T07:13:02.038Z,86.99
2024-04-18T07:15:28.718Z,87.52
2024-04-18T07:17:57.468Z,87.19
2024-04-18T07:20:24.866Z,87.08
2024-04-18T07:22:51.393Z,87.82
2024-04-18T07:25:17.971Z,87.15
2024-04-18T07:27:44.636Z,87.02
2024-04-18T07:30:11.591Z,86.71
2024-04-18T07:32:38.189Z,86.32
2024-04-18T07:35:05.208Z,86.24
2024-04-18T07:37:32.915Z,86.11
2024-04-18T07:40:02.591Z,85.85
2024-04-18T07:42:29.297Z,86.25
2024-04-18T07:44:55.862Z,86.36
2024-04-18T07:47:25.032Z,85.80
2024-04-18T07:49:51.852Z,84.84
2024-04-18T07:52:18.523Z,84.33
2024-04-18T07:54:45.539Z,84.57
2024-04-18T07:57:13.508Z,84.54
2024-04-18T07:59:41.900Z,84.87
2024-04-18T08:02:10.205Z,84.78
2024-04-18T08:04:52.859Z,83.55
2024-04-18T08:07:27.003Z,83.21
2024-04-18T08:09:59.685Z,81.89
2024-04-18T08:12:32.346Z,81.87
2024-04-18T08:15:07.479Z,81.70
2024-04-18T08:17:37.863Z,81.15
2024-04-18T08:20:05.732Z,80.97
2024-04-18T08:22:32.634Z,80.28
2024-04-18T08:24:59.180Z,79.68
2024-04-18T08:27:25.798Z,79.46
2024-04-18T08:29:52.351Z,79.63
2024-04-18T08:32:19.278Z,79.71
2024-04-18T08:34:48.067Z,78.92
2024-04-18T08:37:15.273Z,79.02
2024-04-18T08:39:41.912Z,78.59
2024-04-18T08:42:12.623Z,77.57
2024-04-18T08:44:39.349Z,77.58
2024-04-18T08:47:07.220Z,78.20
2024-04-18T08:49:34.442Z,77.40
2024-04-18T08:52:01.303Z,76.88
2024-04-18T08:54:28.796Z,75.88
2024-04-18T08:56:59.136Z,75.02
2024-04-18T08:59:25.801Z,74.49
2024-04-18T09:01:52.852Z,73.78
2024-04-18T09:04:19.453Z,74.21
2024-04-18T09:06:45.981Z,74.29
2024-04-18T09:09:18.193Z,74.67
2024-04-18T09:11:48.402Z,74.45
2024-04-18T09:14:15.454Z,74.19
2024-04-18T09:16:44.637Z,73.53
2024-04-18T09:19:13.315Z,72.00
2024-04-18T09:21:40.645Z,72.38
2024-04-18T09:24:07.554Z,70.54
2024-04-18T09:26:34.315Z,70.07
2024-04-18T09:29:01.439Z,69.85
2024-04-18T09:31:35.421Z,69.37
2024-04-18T09:34:08.972Z,69.07
2024-04-18T09:36:36.400Z,68.96
2024-04-18T09:39:03.990Z,67.68
2024-04-18T09:41:34.540Z,66.46
2024-04-18T09:44:04.150Z,65.15
2024-04-18T09:46:34.401Z,63.62
2024-04-18T09:49:02.637Z,61.75
2024-04-18T09:51:29.577Z,60.39
2024-04-18T09:53:57.134Z,60.92
2024-04-18T09:56:26.486Z,59.93
2024-04-18T09:58:55.149Z,60.02
2024-04-18T10:01:22.577Z,60.10
2024-04-18T10:03:49.667Z,59.88
2024-04-18T10:06:18.148Z,59.38
2024-04-18T10:08:51.725Z,57.90
2024-04-18T10:11:23.503Z,58.52
2024-04-18T10:13:50.960Z,56.53
2024-04-18T10:16:17.521Z,56.57
2024-04-18T10:18:47.790Z,57.34
2024-04-18T10:21:28.544Z,57.88
2024-04-18T10:24:07.625Z,57.52
2024-04-18T10:26:36.661Z,58.19
2024-04-18T10:29:03.518Z,58.31
2024-04-18T10:31:30.580Z,56.03
2024-04-18T10:33:58.549Z,55.49
2024-04-18T10:36:25.849Z,55.88
2024-04-18T10:38:52.621Z,54.54
2024-04-18T10:41:23.270Z,54.16
2024-04-18T10:43:50.435Z,55.02
2024-04-18T10:46:19.326Z,53.67
2024-04-18T10:48:51.545Z,52.58
2024-04-18T10:51:19.058Z,52.74
2024-04-18T10:53:45.668Z,53.36
2024-04-18T10:56:12.386Z,51.23
2024-04-18T10:58:39.820Z,51.13
2024-04-18T11:01:06.512Z,51.68
2024-04-18T11:03:33.914Z,52.54
2024-04-18T11:06:02.032Z,52.08
2024-04-18T11:08:32.845Z,52.91
2024-04-18T11:11:02.062Z,54.00
2024-04-18T11:13:28.745Z,55.14
2024-04-18T11:15:55.283Z,55.06
2024-04-18T11:18:23.166Z,54.50
2024-04-18T11:20:49.830Z,55.13
2024-04-18T11:23:16.509Z,54.89
2024-04-18T11:25:43.771Z,55.14
2024-04-18T11:28:10.686Z,55.50
2024-04-18T11:30:42.854Z,54.98
2024-04-18T11:33:12.231Z,55.52
2024-04-18T11:35:38.958Z,56.59
2024-04-18T11:38:09.980Z,55.88
2024-04-18T11:40:37.388Z,56.13
2024-04-18T11:43:04.212Z,55.59
2024-04-18T11:45:30.983Z,56.28
2024-04-18T11:47:58.536Z,55.98
2024-04-18T11:50:28.048Z,56.64
2024-04-18T11:52:54.982Z,56.28
2024-04-18T11:55:23.240Z,57.41
2024-04-18T11:57:49.946Z,56.17
2024-04-18T12:00:16.889Z,54.33
2024-04-18T12:02:43.508Z,53.31
2024-04-18T12:05:10.172Z,52.74
2024-04-18T12:07:36.817Z,52.31
2024-04-18T12:10:03.516Z,52.57
2024-04-18T12:12:31.605Z,52.63
2024-04-18T12:14:58.570Z,51.99
2024-04-18T12:17:25.167Z,51.62
2024-04-18T12:19:51.759Z,52.33
2024-04-18T12:22:21.765Z,52.42
2024-04-18T12:24:48.900Z,53.18
2024-04-18T12:27:15.593Z,53.24
2024-04-18T12:29:44.253Z,54.12
2024-04-18T12:32:13.771Z,54.02
2024-04-18T12:34:40.328Z,54.51
2024-04-18T12:37:07.035Z,54.23
2024-04-18T12:39:33.711Z,53.89
2024-04-18T12:42:00.418Z,53.47
2024-04-18T12:44:27.912Z,52.58
2024-04-18T12:46:55.481Z,52.54
2024-04-18T12:49:22.159Z,52.46
2024-04-18T12:51:49.197Z,52.55
2024-04-18T12:54:16.374Z,51.51
2024-04-18T12:56:48.466Z,50.67
2024-04-18T12:59:15.793Z,51.07
2024-04-18T13:01:42.988Z,52.16
2024-04-18T13:04:09.666Z,53.32
2024-04-18T13:06:36.589Z,54.39
2024-04-18T13:09:04.530Z,55.28
2024-04-18T13:11:32.140Z,56.51
2024-04-18T13:13:58.747Z,56.39
2024-04-18T13:16:25.364Z,56.55
2024-04-18T13:18:53.043Z,56.49
2024-04-18T13:21:19.620Z,57.56
2024-04-18T13:23:48.683Z,58.16
2024-04-18T13:26:15.446Z,57.96
2024-04-18T13:28:42.006Z,58.36
2024-04-18T13:31:12.390Z,58.17
2024-04-18T13:33:39.774Z,58.48
2024-04-18T13:36:06.766Z,58.82
2024-04-18T13:38:33.910Z,57.91
2024-04-18T13:41:02.526Z,57.34
2024-04-18T13:43:29.065Z,57.38
2024-04-18T13:45:58.799Z,56.28
2024-04-18T13:48:26.879Z,55.34
2024-04-18T13:50:55.749Z,55.37
2024-04-18T13:53:23.650Z,54.91
2024-04-18T13:55:51.838Z,54.57
2024-04-18T13:58:25.854Z,54.02
2024-04-18T14:00:52.549Z,54.42
2024-04-18T14:03:20.713Z,54.68
2024-04-18T14:05:47.471Z,54.90
2024-04-18T14:08:14.131Z,54.75
2024-04-18T14:10:40.702Z,54.15
2024-04-18T14:13:09.124Z,53.67
2024-04-18T14:15:49.390Z,53.82
2024-04-18T14:18:34.549Z,54.24
2024-04-18T14:21:01.161Z,54.52
2024-04-18T14:23:27.764Z,55.18
2024-04-18T14:25:56.014Z,54.90
2024-04-18T14:28:31.233Z,55.04
2024-04-18T14:31:00.148Z,55.01
2024-04-18T14:33:26.808Z,54.86
2024-04-18T14:35:54.093Z,55.16
2024-04-18T14:38:21.865Z,55.08
2024-04-18T14:40:57.313Z,54.90
2024-04-18T14:43:32.057Z,54.17
2024-04-18T14:45:58.661Z,54.19
2024-04-18T14:48:25.223Z,53.09
2024-04-18T14:50:54.797Z,52.17
2024-04-18T14:53:24.147Z,52.44
2024-04-18T14:55:52.507Z,51.95
2024-04-18T14:58:19.027Z,52.22
2024-04-18T15:00:52.111Z,51.79
2024-04-18T15:03:19.144Z,52.31
2024-04-18T15:05:56.727Z,52.16
2024-04-18T15:08:24.167Z,52.18
2024-04-18T15:10:50.932Z,51.42
2024-04-18T15:13:17.521Z,51.86
2024-04-18T15:15:44.707Z,51.31
2024-04-18T15:18:14.857Z,51.20
2024-04-18T15:20:41.698Z,51.47
2024-04-18T15:23:08.462Z,50.37
2024-04-18T15:25:35.042Z,51.60
2024-04-18T15:28:01.721Z,51.06
2024-04-18T15:30:28.334Z,51.44
2024-04-18T15:32:55.055Z,51.36
2024-04-18T15:35:21.965Z,50.64
2024-04-18T15:37:48.599Z,50.88
2024-04-18T15:40:17.795Z,50.03
2024-04-18T15:42:45.086Z,49.62
2024-04-18T15:45:11.778Z,49.71
2024-04-18T15:47:38.578Z,49.26
2024-04-18T15:50:05.363Z,48.91
2024-04-18T15:52:34.136Z,48.60
2024-04-18T15:55:09.087Z,48.52
2024-04-18T15:57:42.620Z,48.88
2024-04-18T16:00:09.768Z,48.65
2024-04-18T16:02:36.673Z,49.48
2024-04-18T16:05:03.538Z,49.76
2024-04-18T16:07:30.293Z,50.49
2024-04-18T16:09:56.895Z,50.15
2024-04-18T16:12:23.532Z,50.95
2024-04-18T16:14:50.180Z,50.84
2024-04-18T16:17:16.728Z,50.78
2024-04-18T16:19:43.366Z,51.24
2024-04-18T16:22:09.894Z,50.77
2024-04-18T16:24:36.593Z,51.10
2024-04-18T16:27:03.477Z,50.97
2024-04-18T16:29:30.012Z,51.55
2024-04-18T16:31:56.524Z,50.44
2024-04-18T16:34:23.056Z,51.06
2024-04-18T16:37:04.366Z,50.66
2024-04-18T16:39:36.067Z,50.27
2024-04-18T16:42:02.662Z,50.92
2024-04-18T16:44:29.279Z,50.40
2024-04-18T16:46:55.818Z,50.75
2024-04-18T16:49:22.317Z,50.17
2024-04-18T16:51:50.504Z,50.32
2024-04-18T16:54:18.402Z,49.76
2024-04-18T16:56:45.034Z,49.68
2024-04-18T16:59:12.816Z,49.95
2024-04-18T17:01:39.410Z,50.25
2024-04-18T17:04:06.141Z,50.03
2024-04-18T17:06:41.581Z,50.37
2024-04-18T17:09:14.261Z,51.24
2024-04-18T17:11:40.816Z,51.38
2024-04-18T17:14:07.335Z,51.71
2024-04-18T17:16:34.204Z,52.00
2024-04-18T17:19:00.907Z,51.74
2024-04-18T17:21:27.633Z,51.85
2024-04-18T17:23:57.145Z,51.61
2024-04-18T17:26:25.905Z,51.65
2024-04-18T17:28:54.761Z,52.53
2024-04-18T17:31:21.618Z,52.61
2024-04-18T17:33:48.301Z,53.16
2024-04-18T17:36:15.230Z,53.41
2024-04-18T17:38:42.596Z,53.15
2024-04-18T17:41:09.450Z,53.70
2024-04-18T17:43:36.007Z,53.99
2024-04-18T17:46:02.604Z,53.92
2024-04-18T17:48:29.394Z,54.35
2024-04-18T17:50:56.054Z,54.23
2024-04-18T17:53:22.761Z,54.85
2024-04-18T17:55:51.048Z,54.59
2024-04-18T17:58:17.771Z,55.07
2024-04-18T18:00:45.963Z,56.11
2024-04-18T18:03:12.758Z,56.32
2024-04-18T18:05:39.764Z,56.03
2024-04-18T18:08:06.721Z,56.05
2024-04-18T18:10:33.383Z,56.69
2024-04-18T18:13:00.073Z,56.82
2024-04-18T18:15:26.726Z,57.67
2024-04-18T18:17:53.627Z,57.60
2024-04-18T18:20:20.416Z,58.27
2024-04-18T18:22:47.117Z,57.83
2024-04-18T18:25:13.902Z,58.42
2024-04-18T18:27:40.488Z,58.27
2024-04-18T18:30:07.724Z,58.45
2024-04-18T18:32:34.635Z,58.37
2024-04-18T18:35:01.309Z,58.73
2024-04-18T18:37:27.862Z,58.61
2024-04-18T18:39:54.707Z,57.92
2024-04-18T18:42:21.431Z,58.28
2024-04-18T18:44:47.987Z,58.28
2024-04-18T18:47:14.560Z,58.02
2024-04-18T18:49:41.271Z,58.16
2024-04-18T18:52:07.817Z,58.29
2024-04-18T18:54:34.428Z,57.92
2024-04-18T18:57:01.028Z,58.43
2024-04-18T18:59:27.584Z,58.58
2024-04-18T19:01:54.215Z,58.96
2024-04-18T19:04:22.224Z,59.24
2024-04-18T19:06:49.391Z,59.32
2024-04-18T19:09:16.550Z,59.74
2024-04-18T19:11:43.247Z,59.81
2024-04-18T19:14:10.078Z,59.64
2024-04-18T19:16:36.705Z,60.23
2024-04-18T19:19:04.383Z,60.59
2024-04-18T19:21:30.979Z,60.43
2024-04-18T19:23:58.534Z,60.38
2024-04-18T19:26:26.101Z,60.99
2024-04-18T19:28:53.711Z,60.85
2024-04-18T19:31:21.058Z,61.30
2024-04-18T19:33:47.699Z,61.18
2024-04-18T19:36:14.406Z,61.14
2024-04-18T19:38:44.033Z,60.91
2024-04-18T19:41:10.709Z,61.30
2024-04-18T19:43:37.331Z,61.38
2024-04-18T19:46:04.064Z,61.04
2024-04-18T19:48:31.343Z,60.98
2024-04-18T19:50:57.927Z,61.28
2024-04-18T19:53:24.903Z,61.45
2024-04-18T19:55:51.626Z,61.40
2024-04-18T19:58:18.443Z,61.65
2024-04-18T20:00:45.553Z,61.62
2024-04-18T20:03:12.866Z,61.75
2024-04-18T20:05:40.104Z,61.76
2024-04-18T20:08:07.333Z,61.96
2024-04-18T20:10:34.071Z,61.72
2024-04-18T20:13:00.949Z,62.52
2024-04-18T20:15:28.133Z,62.51
2024-04-18T20:17:55.123Z,62.78
2024-04-18T20:20:21.960Z,63.16
2024-04-18T20:22:48.669Z,62.94
2024-04-18T20:25:15.344Z,63.57
2024-04-18T20:27:42.013Z,63.48
2024-04-18T20:30:08.860Z,63.51
2024-04-18T20:32:36.228Z,63.65
2024-04-18T20:35:02.932Z,63.99
2024-04-18T20:37:29.519Z,64.66
2024-04-18T20:39:58.888Z,63.98
2024-04-18T20:42:26.732Z,65.07
2024-04-18T20:44:53.524Z,65.38
2024-04-18T20:47:20.111Z,65.28
2024-04-18T20:49:46.654Z,65.92
2024-04-18T20:52:13.156Z,66.42
2024-04-18T20:54:39.909Z,66.01
2024-04-18T20:57:06.530Z,66.65
2024-04-18T20:59:33.143Z,66.25
2024-04-18T21:02:00.716Z,66.44
2024-04-18T21:04:27.339Z,66.51
2024-04-18T21:06:54.054Z,66.62
2024-04-18T21:09:20.626Z,66.70
2024-04-18T21:11:47.174Z,66.17
2024-04-18T21:14:13.734Z,66.11
2024-04-18T21:16:40.272Z,66.52
2024-04-18T21:19:06.915Z,66.80
2024-04-18T21:21:33.546Z,66.87
2024-04-18T21:24:00.078Z,66.89
2024-04-18T21:26:26.610Z,67.12
2024-04-18T21:28:53.607Z,66.70
2024-04-18T21:31:20.181Z,67.36
2024-04-18T21:33:46.827Z,67.24
2024-04-18T21:36:13.405Z,67.52
2024-04-18T21:38:50.803Z,67.63
2024-04-18T21:41:25.143Z,67.70
2024-04-18T21:43:56.353Z,67.80
2024-04-18T21:46:23.070Z,68.02
2024-04-18T21:48:49.994Z,67.76
2024-04-18T21:51:16.710Z,68.06
2024-04-18T21:53:43.351Z,67.85
2024-04-18T21:56:10.511Z,67.97
2024-04-18T21:58:37.340Z,68.86
2024-04-18T22:01:04.308Z,68.74
2024-04-18T22:03:31.088Z,69.11
2024-04-18T22:05:59.064Z,69.37
2024-04-18T22:08:25.835Z,69.03
2024-04-18T22:10:52.372Z,69.80
2024-04-18T22:13:19.051Z,69.99
2024-04-18T22:15:45.688Z,69.98
2024-04-18T22:18:12.481Z,70.21
2024-04-18T22:20:40.068Z,71.19
2024-04-18T22:23:07.278Z,71.52
2024-04-18T22:25:33.928Z,71.80
2024-04-18T22:28:00.567Z,72.46
2024-04-18T22:30:27.193Z,73.43
2024-04-18T22:32:53.827Z,73.93
2024-04-18T22:35:20.452Z,74.87
2024-04-18T22:37:47.706Z,75.79
2024-04-18T22:40:14.205Z,75.57
2024-04-18T22:42:41.932Z,76.41
2024-04-18T22:45:08.818Z,77.77
2024-04-18T22:47:35.562Z,78.17
2024-04-18T22:50:02.147Z,79.30
2024-04-18T22:52:28.750Z,79.35
2024-04-18T22:54:55.919Z,79.81
2024-04-18T22:57:22.572Z,80.45
2024-04-18T22:59:49.561Z,80.88
2024-04-18T23:02:16.441Z,81.18
2024-04-18T23:04:43.066Z,81.75
2024-04-18T23:07:10.362Z,82.09
2024-04-18T23:09:37.115Z,82.05
2024-04-18T23:12:03.999Z,82.35
2024-04-18T23:14:30.492Z,82.96
2024-04-18T23:16:57.040Z,83.17
2024-04-18T23:19:23.543Z,83.57
2024-04-18T23:21:50.116Z,84.27
2024-04-18T23:24:16.800Z,84.77
2024-04-18T23:26:44.397Z,85.35
2024-04-18T23:29:11.039Z,85.77
2024-04-18T23:31:37.577Z,85.81
2024-04-18T23:34:04.180Z,85.91
2024-04-18T23:36:30.795Z,86.90
2024-04-18T23:38:57.538Z,86.91
2024-04-18T23:41:24.112Z,86.98
2024-04-18T23:43:50.702Z,87.15
2024-04-18T23:46:17.252Z,87.25
2024-04-18T23:48:43.987Z,87.60
2024-04-18T23:51:10.540Z,88.29
2024-04-18T23:53:37.104Z,88.16
2024-04-18T23:56:03.936Z,88.54
2024-04-18T23:58:31.136Z,89.05
